Airfield :
LOGIN :

Register | Disclaimer

   EN    FR    IT 

 










Legend :    VFR   Marginal VFR   IFR   Intensive IFR   Very Intensive IFR
Visi :
Ceiling :
>= 8 km
>= 3000ft
5 to 8 km
1000 to 3000 ft
1500m to 5 km
500 to 1000 ft
800 to 1500m
200 to 500 ft
< 800m
< 200 ft
Symbols :   Thunderstorms  Fog  Heavy snow  Heavy precipitations  Wind > 20 kt
SIGMETs :     Misc.  Thunderstorms  Icing  Turbulence  Mountain Waves  Volcanic Ashes







- Airport Elevation : 84 ft
- Download approach charts


LFBC - Cazaux

CURRENT METAR :
  • 230530Z AUTO 02004KT CAVOK 08/04 Q1020

EXPIRED METARs :
  • 230500Z AUTO 02003KT CAVOK 08/04 Q1019
  • 230430Z AUTO 02004KT CAVOK 09/04 Q1019
  • 230400Z AUTO 02005KT CAVOK 09/04 Q1019
  • 230330Z AUTO 02006KT CAVOK 09/04 Q1019
  • 230300Z AUTO 02006KT CAVOK 10/04 Q1019
  • 230230Z AUTO 02006KT CAVOK 10/04 Q1019

Expired Forecast.
No reported NOTAMs for that airfield.



MET'MAP, your aeronautical weather chart ! - Copyright ORBIFLY December 2007 - Disclaimer

ORBIFLY MET'MAP TEAM :

Programming & Development : Alexandra Zaïnal
Concept & Development : Baudouin d'Aumeries
Co-Development & Prog : Marc-Olivier Méhu
Technical & hardware support : Manuel Goepfert

Contact : metmap@orbifly.com




SOURCES & CREDITS :

   NOAA